Eagle River, Wisconsin
Current Conditions -  °F | °C
As of 6:15 PM on Friday 28 Nov 2014 (Local Time) from KEGV Reporting Station
Clear Clear  
Wind Chill: 12°   Ceiling: Unl
Heat Index: 12°   Visibility: 10mi
Dew Point:   Wind: 0mph
Humidity: 83%   Direction: NA
Pressure: 29.87"   Gusts: NA
Location:  45.92°N, 89.24°W
Report Text: KEGV 290015Z AUTO 00000KT 10SM CLR M11/M13 A2987 RMK AO2 T11101133
Loading
Personal Weather Stations






























Interactive Weather Map New forecast layout! Learn more

10-Day Weather Forecast

Advertisements
Track Severe Weather on mobile